Time;durP1;ratioP1;P1;durP2;ratioP2;P2;SDS_P1;SDS_P2;PMS_P1;PMS_P2;Temp;Humidity;BMP_temperature;BMP_pressure;BME280_temperature;BME280_humidity;BME280_pressure;Samples;Min_cycle;Max_cycle;Signal;HPM_P1;HPM_P2
2024/02/25 00:00:05;;;;;;;171.70;166.07;;;4.90;99.90;;;;;;5003009;28;20978;-69
2024/02/25 00:02:32;;;;;;;156.93;151.93;;;4.90;99.90;;;;;;5013908;28;20477;-69
2024/02/25 00:05:00;;;;;;;149.27;143.87;;;5.00;99.90;;;;;;5004028;28;20481;-69
2024/02/25 00:07:27;;;;;;;142.90;138.10;;;5.00;99.90;;;;;;5010551;28;20457;-69
2024/02/25 00:09:54;;;;;;;132.10;127.70;;;5.00;99.90;;;;;;4994342;28;20858;-68
2024/02/25 00:12:23;;;;;;;128.70;124.27;;;5.20;99.90;;;;;;4993687;28;20938;-69
2024/02/25 00:14:50;;;;;;;124.23;120.00;;;5.10;99.90;;;;;;5005552;28;20442;-69
2024/02/25 00:17:16;;;;;;;117.60;113.70;;;5.10;99.90;;;;;;5003098;28;20465;-69
2024/02/25 00:19:43;;;;;;;115.43;111.40;;;5.00;99.90;;;;;;4994265;28;20458;-69
2024/02/25 00:22:12;;;;;;;120.53;116.43;;;5.10;99.90;;;;;;4994412;28;20458;-69
2024/02/25 00:24:38;;;;;;;119.00;114.80;;;5.00;99.90;;;;;;4998735;28;20935;-69
2024/02/25 00:27:06;;;;;;;118.07;114.03;;;5.00;99.90;;;;;;5013652;28;20459;-69
2024/02/25 00:29:33;;;;;;;114.57;110.37;;;4.90;99.90;;;;;;5013963;28;20484;-69
2024/02/25 00:32:00;;;;;;;112.57;108.77;;;4.90;99.90;;;;;;5006046;28;20458;-69
2024/02/25 00:34:27;;;;;;;105.50;101.93;;;4.80;99.90;;;;;;5009647;28;20472;-69
2024/02/25 00:36:53;;;;;;;121.43;117.23;;;4.80;99.90;;;;;;5013626;28;20810;-69
2024/02/25 00:39:22;;;;;;;133.03;128.57;;;4.80;99.90;;;;;;5013292;28;20528;-69
2024/02/25 00:41:51;;;;;;;134.87;130.37;;;4.80;99.90;;;;;;5013225;28;20464;-69
2024/02/25 00:44:18;;;;;;;115.97;112.00;;;4.90;99.90;;;;;;5012791;28;21063;-69
2024/02/25 00:46:46;;;;;;;100.33;96.73;;;5.00;99.90;;;;;;4999596;28;20454;-68
2024/02/25 00:49:13;;;;;;;92.43;89.13;;;5.10;99.90;;;;;;5011106;28;20948;-69
2024/02/25 00:51:40;;;;;;;75.20;72.40;;;5.10;99.90;;;;;;5008894;28;20846;-69
2024/02/25 00:54:07;;;;;;;63.10;60.63;;;5.10;99.90;;;;;;5012535;28;20535;-69
2024/02/25 00:56:35;;;;;;;59.27;56.83;;;5.10;99.90;;;;;;5013185;28;20464;-68
2024/02/25 00:59:01;;;;;;;57.67;55.47;;;5.10;99.90;;;;;;5013294;28;20861;-69
2024/02/25 01:01:28;;;;;;;62.10;59.20;;;5.10;99.90;;;;;;5005028;28;20834;-69
2024/02/25 01:03:55;;;;;;;67.50;65.00;;;5.00;99.90;;;;;;5005135;28;20833;-69
2024/02/25 01:06:22;;;;;;;69.40;66.70;;;5.00;99.90;;;;;;4993086;28;20488;-69
2024/02/25 01:08:49;;;;;;;78.93;75.83;;;4.90;99.90;;;;;;4993572;28;20449;-69
2024/02/25 01:11:15;;;;;;;87.63;84.57;;;4.90;99.90;;;;;;5011173;28;20987;-69
2024/02/25 01:13:44;;;;;;;103.43;99.97;;;4.90;99.90;;;;;;5006268;28;21018;-69
2024/02/25 01:16:10;;;;;;;89.17;85.87;;;4.90;99.90;;;;;;5003793;28;20461;-68
2024/02/25 01:18:37;;;;;;;105.57;101.93;;;5.00;99.90;;;;;;4997756;28;20463;-69
2024/02/25 01:21:04;;;;;;;115.10;111.20;;;4.90;99.90;;;;;;5004541;28;20454;-68
2024/02/25 01:23:31;;;;;;;109.80;106.10;;;5.00;99.90;;;;;;5008643;28;20479;-69
2024/02/25 01:25:58;;;;;;;105.20;101.60;;;5.00;99.90;;;;;;5012882;28;20466;-69
2024/02/25 01:28:25;;;;;;;98.07;94.57;;;5.10;99.90;;;;;;5007078;28;20453;-69
2024/02/25 01:30:53;;;;;;;92.17;88.87;;;5.10;99.90;;;;;;5004566;28;21074;-69
2024/02/25 01:33:20;;;;;;;74.40;71.50;;;5.10;99.90;;;;;;5011637;28;20569;-69
2024/02/25 01:35:47;;;;;;;74.00;71.37;;;5.20;99.90;;;;;;5012248;28;20445;-69
2024/02/25 01:38:13;;;;;;;64.63;62.00;;;5.20;99.90;;;;;;5012685;28;20453;-69
2024/02/25 01:40:40;;;;;;;56.80;54.47;;;5.30;99.90;;;;;;5012548;28;20452;-69
2024/02/25 01:43:09;;;;;;;65.97;63.57;;;5.30;99.90;;;;;;5011673;28;20469;-69
2024/02/25 01:45:36;;;;;;;64.33;61.93;;;5.20;99.90;;;;;;5012845;28;20508;-69
2024/02/25 01:48:07;;;;;;;68.60;66.00;;;5.30;99.90;;;;;;5012316;28;20456;-69
2024/02/25 01:50:35;;;;;;;67.37;64.60;;;5.30;99.90;;;;;;5012612;28;20461;-69
2024/02/25 01:53:02;;;;;;;65.90;63.50;;;5.20;99.90;;;;;;5011289;28;20471;-69
2024/02/25 01:55:32;;;;;;;53.63;51.63;;;5.30;99.90;;;;;;5004593;28;20453;-69
2024/02/25 01:58:00;;;;;;;33.03;31.63;;;5.30;99.90;;;;;;5012406;28;20460;-70
2024/02/25 02:00:29;;;;;;;13.53;12.63;;;5.40;99.90;;;;;;5012558;28;20464;-69
2024/02/25 02:02:56;;;;;;;7.27;6.70;;;5.60;99.90;;;;;;5011454;28;20473;-69
2024/02/25 02:05:24;;;;;;;4.93;4.30;;;5.70;99.90;;;;;;5012269;28;20488;-69
2024/02/25 02:07:51;;;;;;;5.13;4.60;;;5.80;99.90;;;;;;5012472;28;20452;-69
2024/02/25 02:10:18;;;;;;;4.00;3.50;;;5.90;99.90;;;;;;5012143;28;20453;-69
2024/02/25 02:12:46;;;;;;;6.00;3.77;;;5.80;99.90;;;;;;5011491;28;21002;-69
2024/02/25 02:15:14;;;;;;;12.80;3.67;;;5.90;99.90;;;;;;5011964;28;20453;-68
2024/02/25 02:17:41;;;;;;;5.07;3.40;;;5.90;99.90;;;;;;5011977;28;20479;-69
2024/02/25 02:20:15;;;;;;;4.10;3.37;;;5.90;99.90;;;;;;5012225;28;20457;-69
2024/02/25 02:22:44;;;;;;;5.00;3.43;;;5.90;99.90;;;;;;5011800;28;20476;-69
2024/02/25 02:25:11;;;;;;;4.13;3.00;;;5.80;99.90;;;;;;5011783;28;20481;-69
2024/02/25 02:27:38;;;;;;;4.87;3.07;;;5.80;99.90;;;;;;5012147;28;20459;-68
2024/02/25 02:30:07;;;;;;;4.77;3.70;;;5.80;99.90;;;;;;5012145;28;20536;-69
2024/02/25 02:32:34;;;;;;;5.33;3.53;;;5.80;99.90;;;;;;5012624;28;20473;-69
2024/02/25 02:35:02;;;;;;;4.10;2.97;;;5.80;99.90;;;;;;5011955;28;20475;-69
2024/02/25 02:37:29;;;;;;;4.50;3.17;;;5.80;99.90;;;;;;5004118;28;20540;-69
2024/02/25 02:39:57;;;;;;;4.30;3.10;;;5.80;99.90;;;;;;5014188;28;20452;-69
2024/02/25 02:42:24;;;;;;;9.83;3.30;;;6.00;99.90;;;;;;5015524;28;20496;-69
2024/02/25 02:44:51;;;;;;;4.40;2.93;;;5.80;99.90;;;;;;5015659;28;20858;-69
2024/02/25 02:47:20;;;;;;;4.47;2.90;;;5.90;99.90;;;;;;4999821;28;20805;-69
2024/02/25 02:49:47;;;;;;;3.70;2.60;;;5.90;99.90;;;;;;5015915;28;20452;-69
2024/02/25 02:52:14;;;;;;;3.80;2.60;;;5.80;99.90;;;;;;5017792;28;20480;-69
2024/02/25 02:54:40;;;;;;;4.00;3.30;;;5.80;99.90;;;;;;5010055;28;20480;-69
2024/02/25 02:57:09;;;;;;;6.30;3.70;;;5.70;99.90;;;;;;4995929;28;20458;-69
2024/02/25 02:59:35;;;;;;;3.70;2.57;;;5.80;99.90;;;;;;5008642;28;20468;-69
2024/02/25 03:02:03;;;;;;;4.00;2.90;;;5.80;99.90;;;;;;5008525;28;20452;-69
2024/02/25 03:04:30;;;;;;;3.90;3.07;;;5.80;99.90;;;;;;5007185;28;20480;-69
2024/02/25 03:06:58;;;;;;;5.00;3.50;;;5.80;99.90;;;;;;5007764;28;20529;-69
2024/02/25 03:09:25;;;;;;;4.20;3.40;;;5.80;99.90;;;;;;4996936;28;20457;-69
2024/02/25 03:11:52;;;;;;;4.03;2.70;;;5.80;99.90;;;;;;5014799;28;20457;-69
2024/02/25 03:14:20;;;;;;;3.43;2.13;;;5.80;99.90;;;;;;5014883;28;20473;-69
2024/02/25 03:16:47;;;;;;;4.00;2.60;;;5.90;99.90;;;;;;5015084;28;20453;-69
2024/02/25 03:19:13;;;;;;;4.50;2.30;;;5.90;99.90;;;;;;5006898;28;20458;-69
2024/02/25 03:21:42;;;;;;;3.70;2.10;;;6.00;99.90;;;;;;5011961;28;20451;-69
2024/02/25 03:24:10;;;;;;;4.03;2.50;;;6.00;99.90;;;;;;5010750;28;20897;-69
2024/02/25 03:26:36;;;;;;;3.90;2.60;;;5.90;99.90;;;;;;4995292;28;20457;-69
2024/02/25 03:29:05;;;;;;;3.70;2.63;;;5.90;99.90;;;;;;5011737;28;20445;-69
2024/02/25 03:31:34;;;;;;;3.90;2.70;;;5.90;99.90;;;;;;5007123;28;20448;-69
2024/02/25 03:34:01;;;;;;;4.00;2.70;;;5.90;99.90;;;;;;5007170;28;20474;-69
2024/02/25 03:36:28;;;;;;;4.17;2.87;;;5.90;99.90;;;;;;5007040;28;20459;-69
2024/02/25 03:38:54;;;;;;;4.00;3.00;;;5.90;99.90;;;;;;5014121;28;20459;-68
2024/02/25 03:41:21;;;;;;;4.60;3.50;;;5.80;99.90;;;;;;5014337;28;20453;-69
2024/02/25 03:43:48;;;;;;;3.90;2.87;;;5.80;99.90;;;;;;5014474;28;20480;-69
2024/02/25 03:46:15;;;;;;;3.97;2.53;;;5.90;99.90;;;;;;5014565;28;20481;-69
2024/02/25 03:48:43;;;;;;;3.70;2.40;;;5.90;99.90;;;;;;5014551;28;20846;-69
2024/02/25 03:51:10;;;;;;;5.70;3.00;;;5.90;99.90;;;;;;5013701;28;20449;-69
2024/02/25 03:53:37;;;;;;;4.27;2.30;;;5.90;99.90;;;;;;5001080;28;21028;-69
2024/02/25 03:56:04;;;;;;;4.93;2.87;;;5.90;99.90;;;;;;5011295;28;20750;-69
2024/02/25 03:58:31;;;;;;;5.77;3.10;;;5.90;99.90;;;;;;5014336;28;20472;-69
2024/02/25 04:00:57;;;;;;;3.90;3.07;;;6.00;99.90;;;;;;5013969;28;20543;-69
2024/02/25 04:03:24;;;;;;;3.60;2.53;;;6.00;99.90;;;;;;5005974;28;20484;-69
2024/02/25 04:05:52;;;;;;;4.23;3.40;;;5.90;99.90;;;;;;5007512;28;20482;-69
2024/02/25 04:08:19;;;;;;;4.53;4.13;;;5.90;99.90;;;;;;5013279;28;20461;-69
2024/02/25 04:10:46;;;;;;;5.20;4.80;;;5.90;99.90;;;;;;5014194;28;20848;-69
2024/02/25 04:13:13;;;;;;;5.80;5.20;;;5.80;99.90;;;;;;5013032;28;20469;-69
2024/02/25 04:15:40;;;;;;;6.27;5.77;;;5.80;99.90;;;;;;5009014;28;20461;-69
2024/02/25 04:18:06;;;;;;;6.10;5.60;;;5.80;99.90;;;;;;4993933;28;20458;-69
2024/02/25 04:20:35;;;;;;;7.13;6.63;;;5.80;99.90;;;;;;4998702;28;20514;-70
2024/02/25 04:23:03;;;;;;;8.20;7.67;;;5.70;99.90;;;;;;5013611;28;20504;-70
2024/02/25 04:25:30;;;;;;;10.77;10.10;;;5.70;99.90;;;;;;5002251;28;20488;-69
2024/02/25 04:27:57;;;;;;;12.97;12.27;;;5.60;99.90;;;;;;5001994;28;20464;-70
2024/02/25 04:30:24;;;;;;;15.37;14.57;;;5.60;99.90;;;;;;5005736;28;20461;-70
2024/02/25 04:32:51;;;;;;;11.73;11.07;;;5.50;99.90;;;;;;5006891;28;20481;-70
2024/02/25 04:35:18;;;;;;;15.93;15.13;;;5.50;99.90;;;;;;5003188;28;20449;-69
2024/02/25 04:37:45;;;;;;;23.00;22.00;;;5.50;99.90;;;;;;5007866;28;20453;-71
2024/02/25 04:40:13;;;;;;;25.90;24.70;;;5.50;99.90;;;;;;5019356;28;20452;-70
2024/02/25 04:42:40;;;;;;;28.27;27.07;;;5.50;99.90;;;;;;5013824;28;20473;-70
2024/02/25 04:45:08;;;;;;;36.47;34.97;;;5.50;99.90;;;;;;4996558;28;20492;-69
2024/02/25 04:47:35;;;;;;;42.07;40.47;;;5.50;99.90;;;;;;4993105;28;20481;-69
2024/02/25 04:50:03;;;;;;;29.73;28.53;;;5.50;99.90;;;;;;5010229;28;20460;-70
2024/02/25 04:52:30;;;;;;;17.27;16.27;;;5.60;99.90;;;;;;5013202;28;20480;-69
2024/02/25 04:54:57;;;;;;;18.07;17.07;;;5.60;99.90;;;;;;4997931;28;20442;-69
2024/02/25 04:57:25;;;;;;;26.50;24.20;;;5.70;99.90;;;;;;5012918;28;20449;-68
2024/02/25 04:59:52;;;;;;;41.97;39.97;;;5.70;99.90;;;;;;5006564;28;20466;-69
2024/02/25 05:02:19;;;;;;;47.20;45.40;;;5.70;99.90;;;;;;4992574;28;20454;-69
2024/02/25 05:04:46;;;;;;;53.97;51.87;;;5.70;99.90;;;;;;4998934;28;20453;-69
2024/02/25 05:07:12;;;;;;;44.20;42.50;;;5.60;99.90;;;;;;5003824;28;20464;-69
2024/02/25 05:09:39;;;;;;;45.50;43.73;;;5.70;99.90;;;;;;4993170;28;20458;-69
2024/02/25 05:12:06;;;;;;;49.83;48.00;;;5.60;99.90;;;;;;5009800;28;20467;-69
2024/02/25 05:14:35;;;;;;;62.73;60.43;;;5.60;99.90;;;;;;5005148;28;20449;-71
2024/02/25 05:17:01;;;;;;;69.87;67.33;;;5.60;99.90;;;;;;5013292;28;20536;-69
2024/02/25 05:19:28;;;;;;;94.43;91.17;;;5.60;99.90;;;;;;5004391;28;20831;-69
2024/02/25 05:21:56;;;;;;;100.63;97.30;;;5.50;99.90;;;;;;5006163;28;20467;-69
2024/02/25 05:24:23;;;;;;;115.47;111.70;;;5.50;99.90;;;;;;5005749;28;20499;-69
2024/02/25 05:26:50;;;;;;;121.00;116.93;;;5.50;99.90;;;;;;5002946;28;20476;-70
2024/02/25 05:29:16;;;;;;;116.77;112.93;;;5.50;99.90;;;;;;5010552;28;20467;-68
2024/02/25 05:31:44;;;;;;;123.17;119.13;;;5.50;99.90;;;;;;4998118;28;20963;-69
2024/02/25 05:34:11;;;;;;;126.47;122.23;;;5.50;99.90;;;;;;4999953;28;20469;-69
2024/02/25 05:36:38;;;;;;;92.57;89.37;;;5.60;99.90;;;;;;5004551;28;20450;-69
2024/02/25 05:39:05;;;;;;;101.87;98.47;;;5.60;99.90;;;;;;5009430;28;20472;-69
2024/02/25 05:41:32;;;;;;;78.30;75.60;;;5.60;99.90;;;;;;5007120;28;20815;-69
2024/02/25 05:43:58;;;;;;;79.47;76.63;;;5.70;99.90;;;;;;5005620;28;20477;-69
2024/02/25 05:46:25;;;;;;;73.23;70.63;;;5.60;99.90;;;;;;5006042;28;20935;-69
2024/02/25 05:48:53;;;;;;;84.87;81.93;;;5.70;99.90;;;;;;5012792;28;20552;-69
2024/02/25 05:51:20;;;;;;;79.00;76.23;;;5.60;99.90;;;;;;5012290;28;20453;-69
2024/02/25 05:53:47;;;;;;;87.33;84.37;;;5.70;99.90;;;;;;5005984;28;20470;-69
2024/02/25 05:56:14;;;;;;;63.30;61.03;;;5.60;99.90;;;;;;5009666;28;20456;-69
2024/02/25 05:58:41;;;;;;;60.07;57.87;;;5.70;99.90;;;;;;5012294;28;20461;-69
2024/02/25 06:01:08;;;;;;;76.43;73.77;;;5.70;99.90;;;;;;4998754;28;20453;-69
2024/02/25 06:03:35;;;;;;;64.40;62.10;;;5.70;99.90;;;;;;5005303;28;20473;-69
2024/02/25 06:06:04;;;;;;;57.27;55.17;;;5.80;99.90;;;;;;5005761;28;20485;-70
2024/02/25 06:08:31;;;;;;;68.03;65.47;;;5.80;99.90;;;;;;5003484;28;20449;-69
2024/02/25 06:10:57;;;;;;;53.87;51.87;;;5.80;99.90;;;;;;5010329;28;20452;-69
2024/02/25 06:13:25;;;;;;;74.43;71.83;;;5.80;99.90;;;;;;5012327;28;20468;-69
2024/02/25 06:15:51;;;;;;;68.10;65.70;;;5.70;99.90;;;;;;5014937;28;20440;-69
2024/02/25 06:18:18;;;;;;;69.10;66.67;;;5.70;99.90;;;;;;5013495;28;20456;-69
2024/02/25 06:20:45;;;;;;;54.87;52.87;;;5.70;99.90;;;;;;5005688;28;20462;-68
2024/02/25 06:23:13;;;;;;;30.63;29.40;;;5.80;99.90;;;;;;5005468;28;21020;-70
2024/02/25 06:25:40;;;;;;;21.57;20.57;;;5.90;99.90;;;;;;5010907;28;20853;-68
2024/02/25 06:28:07;;;;;;;20.93;19.80;;;6.00;99.90;;;;;;5015804;28;20822;-69
2024/02/25 06:30:34;;;;;;;19.70;18.80;;;6.00;99.90;;;;;;5007223;28;20840;-69
2024/02/25 06:33:00;;;;;;;25.07;24.00;;;6.00;99.90;;;;;;5011458;28;20468;-69
2024/02/25 06:35:27;;;;;;;28.43;27.20;;;6.00;99.90;;;;;;4999501;28;20448;-69
2024/02/25 06:37:54;;;;;;;37.63;36.07;;;6.00;99.90;;;;;;5015493;28;20453;-69
2024/02/25 06:40:22;;;;;;;40.67;39.07;;;5.90;99.90;;;;;;5006725;28;20448;-69
2024/02/25 06:42:50;;;;;;;50.77;48.73;;;5.90;99.90;;;;;;5009347;28;20998;-69
2024/02/25 06:45:16;;;;;;;54.60;52.60;;;5.80;99.90;;;;;;5010690;28;20457;-69
2024/02/25 06:47:46;;;;;;;59.90;57.70;;;5.80;99.90;;;;;;5012226;28;20488;-69
2024/02/25 06:50:12;;;;;;;67.30;64.90;;;5.70;99.90;;;;;;5015276;28;20453;-69
2024/02/25 06:52:39;;;;;;;63.83;61.37;;;5.70;99.90;;;;;;5015444;28;20504;-69
2024/02/25 06:55:08;;;;;;;52.30;50.20;;;5.80;99.90;;;;;;5007732;28;20449;-69
2024/02/25 06:57:36;;;;;;;37.50;36.07;;;5.80;99.90;;;;;;5010992;28;20449;-69
2024/02/25 07:00:07;;;;;;;36.47;34.97;;;5.90;99.90;;;;;;5010990;28;20463;-69
2024/02/25 07:02:34;;;;;;;32.70;31.40;;;6.00;99.90;;;;;;5011401;28;20478;-69
2024/02/25 07:05:01;;;;;;;25.43;24.33;;;6.00;99.90;;;;;;5011968;28;20455;-69
2024/02/25 07:07:27;;;;;;;21.77;20.73;;;6.00;99.90;;;;;;5011033;28;20481;-69
2024/02/25 07:09:57;;;;;;;23.20;22.10;;;6.00;99.90;;;;;;5014017;28;20457;-68
2024/02/25 07:12:24;;;;;;;20.20;19.10;;;6.10;99.90;;;;;;5005381;28;20479;-69
2024/02/25 07:14:52;;;;;;;16.63;15.63;;;6.10;99.90;;;;;;5009724;28;20527;-69
2024/02/25 07:17:19;;;;;;;13.50;12.70;;;6.10;99.90;;;;;;5014715;28;20446;-69
2024/02/25 07:19:47;;;;;;;11.67;10.97;;;6.10;99.90;;;;;;5009641;28;20468;-69
2024/02/25 07:22:14;;;;;;;13.60;12.70;;;6.10;99.90;;;;;;5012564;28;20815;-69
2024/02/25 07:24:41;;;;;;;10.37;9.67;;;6.10;99.90;;;;;;5013403;28;20450;-69
2024/02/25 07:27:08;;;;;;;10.63;9.83;;;6.20;99.90;;;;;;5013975;28;20495;-69
2024/02/25 07:29:35;;;;;;;12.87;11.83;;;6.20;99.90;;;;;;5010058;28;20453;-69
2024/02/25 07:32:03;;;;;;;10.40;9.80;;;6.20;99.90;;;;;;5007459;28;20846;-69
2024/02/25 07:34:30;;;;;;;8.33;7.73;;;6.30;99.90;;;;;;5003221;28;20450;-69
2024/02/25 07:36:57;;;;;;;7.90;7.30;;;6.40;99.90;;;;;;5012342;28;20449;-68
2024/02/25 07:39:23;;;;;;;7.07;6.57;;;6.40;99.90;;;;;;5014403;28;20461;-68
2024/02/25 07:41:50;;;;;;;6.70;6.20;;;6.40;99.90;;;;;;5006164;28;20460;-69
2024/02/25 07:44:17;;;;;;;7.43;6.83;;;6.50;99.90;;;;;;5009440;28;20548;-69
2024/02/25 07:46:44;;;;;;;6.80;6.20;;;6.60;99.90;;;;;;5013593;28;20476;-68
2024/02/25 07:49:12;;;;;;;8.63;7.93;;;6.60;99.90;;;;;;5012949;28;20449;-69
2024/02/25 07:51:39;;;;;;;6.67;6.03;;;6.60;99.90;;;;;;5014198;28;20953;-70
2024/02/25 07:54:05;;;;;;;5.90;5.40;;;6.70;99.90;;;;;;5008256;28;20484;-68
2024/02/25 07:56:32;;;;;;;4.43;4.03;;;6.70;99.90;;;;;;5007200;28;20449;-70
2024/02/25 07:58:59;;;;;;;4.57;4.03;;;6.70;99.90;;;;;;5006719;28;20466;-70
2024/02/25 08:01:26;;;;;;;4.60;4.10;;;6.80;99.90;;;;;;4996019;28;20468;-69
2024/02/25 08:03:53;;;;;;;5.40;4.90;;;6.90;99.90;;;;;;5008918;28;21024;-69
2024/02/25 08:06:27;;;;;;;4.07;3.10;;;6.90;99.90;;;;;;5010966;28;21004;-70
2024/02/25 08:08:53;;;;;;;5.80;3.20;;;6.90;99.90;;;;;;5004299;28;20450;-69
2024/02/25 08:11:20;;;;;;;5.90;3.73;;;7.10;99.90;;;;;;5004247;28;20449;-70
2024/02/25 08:13:47;;;;;;;6.80;3.63;;;7.10;99.90;;;;;;4994135;28;20481;-69
2024/02/25 08:16:14;;;;;;;4.60;2.90;;;7.20;99.90;;;;;;5003438;28;20449;-69
2024/02/25 08:18:44;;;;;;;4.50;2.90;;;7.20;99.90;;;;;;5000150;28;20453;-69
2024/02/25 08:21:12;;;;;;;4.77;2.70;;;7.40;99.90;;;;;;5013757;28;20457;-69
2024/02/25 08:23:40;;;;;;;4.67;2.43;;;7.40;99.90;;;;;;5013010;28;20467;-69
2024/02/25 08:26:08;;;;;;;4.00;2.50;;;7.40;99.90;;;;;;5004488;28;20535;-68
2024/02/25 08:28:36;;;;;;;4.47;1.73;;;7.50;99.90;;;;;;5013589;28;20451;-69
2024/02/25 08:31:03;;;;;;;6.88;2.25;;;7.40;98.80;;;;;;5000790;28;20467;-68
2024/02/25 08:33:30;;;;;;;3.93;1.77;;;7.40;99.90;;;;;;5001778;28;20989;-68
2024/02/25 08:35:57;;;;;;;4.00;1.80;;;7.40;97.20;;;;;;5001293;28;20811;-69
2024/02/25 08:38:24;;;;;;;3.70;1.47;;;7.50;98.10;;;;;;5008736;28;20467;-69
2024/02/25 08:40:52;;;;;;;4.43;1.70;;;7.60;97.20;;;;;;5007353;28;20454;-69
2024/02/25 08:43:19;;;;;;;4.07;1.63;;;7.70;97.30;;;;;;5000214;28;20470;-70
2024/02/25 08:45:46;;;;;;;4.17;1.77;;;7.80;97.20;;;;;;5008905;28;20593;-70
2024/02/25 08:48:12;;;;;;;4.80;1.63;;;7.90;97.30;;;;;;5011146;28;20465;-69
2024/02/25 08:50:39;;;;;;;4.57;1.70;;;7.90;97.20;;;;;;5011859;28;20453;-70
2024/02/25 08:53:06;;;;;;;3.70;1.30;;;8.00;97.30;;;;;;5012915;28;20491;-70
2024/02/25 08:55:33;;;;;;;4.03;1.40;;;8.00;97.30;;;;;;5012814;28;20971;-69
2024/02/25 08:58:01;;;;;;;5.20;1.60;;;7.90;97.20;;;;;;5013000;28;20944;-69
2024/02/25 09:00:29;;;;;;;5.80;1.43;;;7.90;97.20;;;;;;5009562;28;20966;-69
2024/02/25 09:02:57;;;;;;;7.70;3.27;;;7.90;97.20;;;;;;5000425;28;20622;-69
2024/02/25 09:05:23;;;;;;;4.30;1.70;;;8.00;97.30;;;;;;5012928;28;20459;-69
2024/02/25 09:07:50;;;;;;;4.30;1.57;;;8.10;97.30;;;;;;5004940;28;20492;-69
2024/02/25 09:10:19;;;;;;;3.57;1.00;;;8.10;97.30;;;;;;5011082;28;20457;-69
2024/02/25 09:12:47;;;;;;;3.50;1.10;;;8.10;94.90;;;;;;5011483;28;20504;-69
2024/02/25 09:15:16;;;;;;;3.80;1.20;;;8.20;94.10;;;;;;5011095;28;20489;-69
2024/02/25 09:17:43;;;;;;;4.00;1.23;;;8.20;94.10;;;;;;5001516;28;20445;-69
2024/02/25 09:20:11;;;;;;;3.73;1.13;;;8.30;94.10;;;;;;5008055;28;20460;-69
2024/02/25 09:22:38;;;;;;;4.57;1.13;;;8.30;92.00;;;;;;5005795;28;20503;-68
2024/02/25 09:25:05;;;;;;;6.00;1.50;;;8.30;90.80;;;;;;5009269;28;20839;-69
2024/02/25 09:27:32;;;;;;;4.33;1.10;;;8.40;90.80;;;;;;5013031;28;20495;-69
2024/02/25 09:29:59;;;;;;;6.73;1.37;;;8.50;92.50;;;;;;5012805;28;20457;-69
2024/02/25 09:32:30;;;;;;;4.20;1.33;;;8.60;91.80;;;;;;5012801;28;20853;-69
2024/02/25 09:34:57;;;;;;;4.93;1.20;;;8.60;90.90;;;;;;5004960;28;21016;-69
2024/02/25 09:37:24;;;;;;;3.47;1.00;;;8.70;90.90;;;;;;5012406;28;20945;-70
2024/02/25 09:39:50;;;;;;;4.57;1.20;;;8.70;90.90;;;;;;5012441;28;20511;-70
2024/02/25 09:42:19;;;;;;;3.63;1.10;;;8.90;91.00;;;;;;5011527;28;20453;-69
2024/02/25 09:44:46;;;;;;;3.50;1.10;;;9.00;91.00;;;;;;5006397;28;20940;-69
2024/02/25 09:47:15;;;;;;;6.47;0.90;;;9.30;91.10;;;;;;5012298;28;20488;-69
2024/02/25 09:49:46;;;;;;;4.77;1.20;;;9.80;91.30;;;;;;4998872;28;20458;-70
2024/02/25 09:52:14;;;;;;;4.30;1.10;;;10.10;91.00;;;;;;4995364;28;20460;-70
2024/02/25 09:54:42;;;;;;;3.70;0.97;;;10.40;85.00;;;;;;5012090;28;20828;-70
2024/02/25 09:57:09;;;;;;;3.90;1.00;;;10.90;77.80;;;;;;5012448;28;20476;-70
2024/02/25 09:59:36;;;;;;;5.30;1.10;;;10.90;77.80;;;;;;5012389;28;20840;-69
2024/02/25 10:02:06;;;;;;;4.10;1.50;;;10.60;77.50;;;;;;5012057;28;20547;-69
2024/02/25 10:04:33;;;;;;;4.67;1.00;;;10.40;77.30;;;;;;5008295;28;20454;-70
2024/02/25 10:07:01;;;;;;;5.40;1.20;;;10.00;76.90;;;;;;4992327;28;20485;-70
2024/02/25 10:09:30;;;;;;;4.23;1.10;;;9.70;80.90;;;;;;5003967;28;20457;-69
2024/02/25 10:11:57;;;;;;;5.30;0.97;;;9.70;85.30;;;;;;5012631;28;20453;-69
2024/02/25 10:14:24;;;;;;;4.20;1.10;;;9.70;85.40;;;;;;5011955;28;20496;-69
2024/02/25 10:17:01;;;;;;;3.90;1.13;;;9.70;82.20;;;;;;5012590;28;20452;-69
2024/02/25 10:19:28;;;;;;;4.03;1.20;;;9.90;85.50;;;;;;5008019;28;20460;-68
2024/02/25 10:22:04;;;;;;;4.07;0.90;;;9.90;77.90;;;;;;5006005;28;20460;-69
2024/02/25 10:24:31;;;;;;;5.30;1.43;;;9.70;77.70;;;;;;5007674;28;20449;-69
2024/02/25 10:27:08;;;;;;;4.00;1.07;;;10.20;82.70;;;;;;5003066;28;20842;-71
2024/02/25 10:29:49;;;;;;;4.23;1.17;;;10.10;77.00;;;;;;5003513;28;20453;-68
2024/02/25 10:32:22;;;;;;;5.27;1.10;;;10.00;76.90;;;;;;5010184;28;20459;-69
2024/02/25 10:34:49;;;;;;;4.53;1.00;;;10.10;79.60;;;;;;5010417;28;20503;-69
2024/02/25 10:37:20;;;;;;;4.10;1.10;;;10.00;83.40;;;;;;5000737;28;20472;-69
2024/02/25 10:39:49;;;;;;;4.97;1.33;;;10.10;77.10;;;;;;4990820;28;20461;-69
2024/02/25 10:42:17;;;;;;;4.57;1.03;;;10.00;76.90;;;;;;5008377;28;20455;-69
2024/02/25 10:44:45;;;;;;;4.40;1.10;;;10.00;77.00;;;;;;5011417;28;20472;-70
2024/02/25 10:47:16;;;;;;;5.67;1.30;;;10.20;77.10;;;;;;5010181;28;20472;-69
2024/02/25 10:49:45;;;;;;;5.00;1.00;;;10.20;77.10;;;;;;4997808;28;20465;-69
2024/02/25 10:52:13;;;;;;;4.73;1.00;;;10.30;77.20;;;;;;5003172;28;20448;-69
2024/02/25 10:54:42;;;;;;;6.90;1.30;;;10.30;77.20;;;;;;5006057;28;20480;-69
2024/02/25 10:57:10;;;;;;;9.83;1.77;;;10.30;77.20;;;;;;5004976;28;20450;-69
2024/02/25 10:59:39;;;;;;;5.90;1.00;;;10.50;77.40;;;;;;4998611;28;20524;-69
2024/02/25 11:02:08;;;;;;;7.60;1.10;;;10.30;74.00;;;;;;4995618;28;20484;-69
2024/02/25 11:04:35;;;;;;;4.70;0.90;;;10.20;75.70;;;;;;5014744;28;20457;-70
2024/02/25 11:07:05;;;;;;;4.93;1.07;;;10.20;73.20;;;;;;4999414;28;20897;-69
2024/02/25 11:09:32;;;;;;;5.03;1.00;;;10.00;74.90;;;;;;5007341;28;20451;-69
2024/02/25 11:12:19;;;;;;;4.73;1.07;;;10.00;76.90;;;;;;4999787;28;20453;-69
2024/02/25 11:14:49;;;;;;;4.03;1.03;;;10.20;77.10;;;;;;5008935;28;20454;-70
2024/02/25 11:17:16;;;;;;;4.67;1.03;;;10.20;77.10;;;;;;5015112;28;20540;-69
2024/02/25 11:19:43;;;;;;;5.73;1.20;;;10.80;77.50;;;;;;5009819;28;20460;-69
2024/02/25 11:22:10;;;;;;;7.10;1.40;;;11.80;79.30;;;;;;4996183;28;20457;-69
2024/02/25 11:24:47;;;;;;;4.20;1.10;;;13.00;63.70;;;;;;5014425;28;20555;-69
2024/02/25 11:27:14;;;;;;;5.17;1.20;;;13.60;54.20;;;;;;4996794;28;20935;-69
2024/02/25 11:29:43;;;;;;;5.27;1.70;;;14.40;48.00;;;;;;5008614;28;20453;-69
2024/02/25 11:32:10;;;;;;;4.80;1.30;;;14.30;39.10;;;;;;5015026;28;20463;-69
2024/02/25 11:34:37;;;;;;;6.43;0.90;;;13.60;42.40;;;;;;5014785;28;20460;-70
2024/02/25 11:37:05;;;;;;;4.30;0.90;;;13.30;47.00;;;;;;5014948;28;20453;-69
2024/02/25 11:39:33;;;;;;;7.70;1.30;;;13.40;47.10;;;;;;5010594;28;20462;-68
2024/02/25 11:42:01;;;;;;;4.90;1.50;;;14.50;39.60;;;;;;5010623;28;20459;-69
2024/02/25 11:44:29;;;;;;;4.97;1.03;;;15.00;35.40;;;;;;5014332;28;20488;-69
2024/02/25 11:46:59;;;;;;;4.23;0.90;;;15.50;31.20;;;;;;5014561;28;20453;-69
2024/02/25 11:49:26;;;;;;;7.40;1.20;;;16.00;24.10;;;;;;5014568;28;20453;-70
2024/02/25 11:51:56;;;;;;;4.37;1.00;;;16.00;24.10;;;;;;4999657;28;20549;-70
2024/02/25 11:54:23;;;;;;;5.43;0.90;;;14.90;23.40;;;;;;4994116;28;20481;-69
2024/02/25 11:56:50;;;;;;;4.60;1.00;;;13.50;26.40;;;;;;5009014;28;20456;-69
2024/02/25 11:59:19;;;;;;;4.80;1.10;;;12.80;29.00;;;;;;5014023;28;20468;-69
2024/02/25 12:01:47;;;;;;;4.47;0.87;;;12.20;37.10;;;;;;5014109;28;20950;-69
2024/02/25 12:04:16;;;;;;;4.80;1.10;;;11.80;45.50;;;;;;4995973;28;20478;-69
2024/02/25 12:06:43;;;;;;;7.70;2.10;;;11.50;45.30;;;;;;4994558;28;20908;-69
2024/02/25 12:09:13;;;;;;;5.53;1.03;;;11.50;45.30;;;;;;4994968;28;20496;-69
2024/02/25 12:11:40;;;;;;;5.13;1.23;;;11.30;45.10;;;;;;5013973;28;20467;-69
2024/02/25 12:14:17;;;;;;;4.23;0.87;;;11.30;45.10;;;;;;5013700;28;20509;-69
2024/02/25 12:16:46;;;;;;;6.30;1.10;;;11.30;45.00;;;;;;5014236;28;20456;-69
2024/02/25 12:19:13;;;;;;;4.73;1.20;;;11.30;45.10;;;;;;5012880;28;20453;-69
2024/02/25 12:21:43;;;;;;;3.80;0.80;;;11.50;45.20;;;;;;4994271;28;20454;-69
2024/02/25 12:24:10;;;;;;;4.20;1.13;;;11.80;36.70;;;;;;4994081;28;20478;-69
2024/02/25 12:26:49;;;;;;;5.70;1.00;;;12.20;37.20;;;;;;4999134;28;20457;-69
2024/02/25 12:29:16;;;;;;;6.67;1.40;;;13.10;35.00;;;;;;5013493;28;20485;-69
2024/02/25 12:31:43;;;;;;;4.40;1.10;;;13.80;29.70;;;;;;5013662;28;20465;-69
2024/02/25 12:34:10;;;;;;;4.90;1.03;;;13.40;29.40;;;;;;5012864;28;20528;-69
2024/02/25 12:36:37;;;;;;;4.10;0.70;;;12.80;29.00;;;;;;5014148;28;20453;-69
2024/02/25 12:39:12;;;;;;;6.10;0.90;;;12.70;28.90;;;;;;5012771;28;20992;-69
2024/02/25 12:41:40;;;;;;;5.95;1.42;;;12.30;29.60;;;;;;5005187;28;20443;-69
2024/02/25 12:44:08;;;;;;;5.33;1.20;;;12.10;28.50;;;;;;5011310;28;20223;-69
2024/02/25 12:46:35;;;;;;;5.10;1.00;;;12.30;37.00;;;;;;4993908;28;20463;-69